• Join FlightAware (Why Join?)
  • Login
  • US Flag 
02:32AM EDT


 

Airport Tracker/Info


-or-


 

Live Flight TrackerFlight Track Log ✈ SWA1086 ✈ 05-Jul-2013 ✈ KMCI - KDAL

Flight Track Log - Related Links

Times and Time Zones

All times are in EDT time to prevent confusion due to time zone crossing. See the SWA1086 flight status page for this flight to view local times or setup timezone preferences in your user account.

Time Position Orientation Groundspeed Altitude Reporting Facility
EDT Latitude Longitude Course Direction KTS MPH feet Rate Location/Type
09:45PM 39.2667 -94.7333 180° South 172 198 3,700  Level Kansas City TRACON
09:46PM 39.2358 -94.7542 208° Southwest 213 245 5,500 3,720 Climbing Kansas City Center
09:47PM 39.1661 -94.7756 193° South 262 302 9,600 3,120 Climbing Kansas City Center
09:48PM 39.0814 -94.8078 196° South 342 394 11,900 3,240 Climbing Kansas City Center
09:49PM 38.9614 -94.8492 195° South 393 452 16,200 3,600 Climbing Kansas City Center
09:50PM 38.6915 -94.9355 191° South  Level FlightAware Approximate
09:50PM 38.8511 -94.8883 195° South 426 490 19,300  Level Kansas City Center
09:51PM 38.7350 -94.9303 196° South 450 518 22,100 2,760 Climbing Kansas City Center
09:52PM 38.5903 -94.9819 196° South 480 552 25,000 2,400 Climbing Kansas City Center
09:53PM 38.4619 -95.0275 196° South 498 573 27,000 1,980 Climbing Kansas City Center
09:54PM 38.3278 -95.0744 195° South 518 596 29,100 2,400 Climbing Kansas City Center
09:55PM 38.1708 -95.1281 195° South 521 600 31,900 2,400 Climbing Kansas City Center
09:56PM 38.0344 -95.1750 195° South 527 606 34,100 1,980 Climbing Kansas City Center
09:57PM 37.8906 -95.2256 195° South 524 603 36,000 900 Climbing Kansas City Center
09:58PM 37.7458 -95.2531 189° South 526 605 36,000  Level Kansas City Center
09:59PM 37.5989 -95.2453 178° South 523 602 36,000  Level Kansas City Center
10:00PM 37.4528 -95.2453 180° South 524 603 36,000  Level Kansas City Center
10:01PM 37.3075 -95.2464 180° South 521 600 36,000  Level Kansas City Center
10:02PM 37.1619 -95.2456 180° South 522 601 36,000  Level Kansas City Center
10:03PM 37.0161 -95.2450 180° South 522 601 36,000  Level Kansas City Center
10:04PM 36.8700 -95.2456 180° South 522 601 36,000  Level Kansas City Center
10:05PM 36.7239 -95.2453 180° South 522 601 36,000  Level Kansas City Center
10:06PM 36.5544 -95.2444 180° South 526 605 36,000  Level Kansas City Center
10:07PM 36.4064 -95.2428 179° South 529 609 36,000  Level Kansas City Center
10:08PM 36.2581 -95.2436 180° South 532 612 36,000  Level Kansas City Center
10:09PM 36.1119 -95.2442 180° South 527 606 36,000  Level Kansas City Center
10:10PM 35.9783 -95.2453 180° South 522 601 36,000  Level Kansas City Center
10:11PM 35.8033 -95.2453 180° South 521 600 36,000  Level Kansas City Center
10:12PM 35.6647 -95.2925 195° South 520 598 36,000 -60 Level Kansas City Center
10:13PM 35.5281 -95.3522 200° South 519 597 35,900 -480 Descending Kansas City Center
10:14PM 35.4400 -95.3931 201° Southwest 520 598 35,200 -960 Descending Fort Worth Center
10:15PM 35.3014 -95.4550 200° South 525 604 34,300 -960 Descending Fort Worth Center
10:16PM 35.1647 -95.5192 201° Southwest 525 604 33,300 -960 Descending Fort Worth Center
10:17PM 35.0258 -95.5778 199° South 525 604 32,400 -1,020 Descending Fort Worth Center
10:18PM 34.8744 -95.6444 200° South 525 604 31,300 -720 Descending Fort Worth Center
10:19PM 34.7333 -95.7031 199° South 525 604 31,000 -180 Descending Fort Worth Center
10:20PM 34.5986 -95.7636 200° South 525 604 31,000  Level Fort Worth Center
10:21PM 34.4617 -95.8217 199° South 525 604 31,000  Level Fort Worth Center
10:22PM 34.3247 -95.8819 200° South 525 604 31,000  Level Fort Worth Center
10:23PM 34.1897 -95.9422 200° South 525 604 31,000 -1,380 Level Fort Worth Center
10:24PM 34.0569 -95.9969 199° South 519 597 28,300 -3,180 Descending Fort Worth Center
10:25PM 33.9239 -96.0567 200° South 514 592 24,700 -3,540 Descending Fort Worth Center
10:26PM 33.7886 -96.0714 185° South 494 568 21,300 -3,120 Descending Fort Worth Center
10:27PM 33.6614 -96.0858 185° South 472 543 18,500 -2,880 Descending Fort Worth Center
10:28PM 33.5467 -96.1025 187° South 439 505 15,600 -2,760 Descending Fort Worth Center
10:29PM 33.4536 -96.1736 213° Southwest 403 464 13,000 -2,160 Descending Fort Worth Center
10:30PM 33.3686 -96.2469 216° Southwest 381 438 11,300 -1,500 Descending Fort Worth Center
10:31PM 33.2878 -96.3150 215° Southwest 375 432 10,100 -660 Descending Fort Worth Center
10:32PM 33.2258 -96.3928 226° Southwest 343 395 10,000 -720 Descending Fort Worth Center
10:33PM 33.1742 -96.4728 232° Southwest 316 364 8,700 -1,500 Descending Fort Worth Center
10:34PM 33.1269 -96.5478 233° Southwest 292 336 7,100 -1,680 Descending Fort Worth Center
10:35PM 33.0856 -96.6225 237° Southwest 287 330 5,400 -1,020 Descending Fort Worth Center
10:36PM 33.0442 -96.6872 233° Southwest 282 325 5,100 -1,020 Descending Fort Worth Center
10:37PM 32.9967 -96.7644 234° Southwest 276 318 3,400 -1,020 Descending Fort Worth Center
10:38PM 32.9594 -96.8267 235° Southwest 264 304 3,100 -480 Descending Fort Worth Center
10:39PM 32.9219 -96.8864 233° Southwest 239 275 2,500 -840 Descending Fort Worth Center
10:40PM 32.8928 -96.9111 215° Southwest 152 175 1,500 -780 Descending Fort Worth Center
10:41PM 32.8678 -96.8817 135° Southeast 102 117 1,000 -420 Descending Fort Worth Center
10:42PM 32.8447 -96.8819 181° South 102 117 700 15,000 Descending Fort Worth Center
10:43PM 32.8178 -96.8819 180° South 102 117 31,000 30,300 Climbing Fort Worth Center